Portland, Maine
Current Conditions -  °F | °C
As of 9:51 PM on Tuesday 21 Oct 2014 (Local Time) from KPWM Reporting Station
Moderate Rain Moderate Rain  
Wind Chill: 50°   Ceiling: 500
Heat Index: 50°   Visibility: 2.5mi
Dew Point: 48°   Wind: 9mph
Humidity: 93%   Direction: 20°NNE
Pressure: 30.03"   Gusts: NA
Location:  43.66°N, 70.26°W
Report Text: KPWM 220151Z 02008KT 2 1/2SM RA BR OVC005 10/09 A3003 RMK AO2 SLP170 P0007 T01000089
Loading
Personal Weather Stations






























Interactive Weather Map
Tropical Storm Tracking
New forecast layout! Learn more

10-Day Weather Forecast

Advertisements
Track Severe Weather on mobile